Time;durP1;ratioP1;P1;durP2;ratioP2;P2;SDS_P1;SDS_P2;PMS_P1;PMS_P2;Temp;Humidity;BMP_temperature;BMP_pressure;BME280_temperature;BME280_humidity;BME280_pressure;Samples;Min_cycle;Max_cycle;Signal;HPM_P1;HPM_P2
2023/03/19 00:01:31;;;;;;;6.10;1.27;;;;;;;;;;4989106;28;20066;-64
2023/03/19 00:04:01;;;;;;;7.88;1.30;;;;;;;;;;4989266;28;20062;-61
2023/03/19 00:06:30;;;;;;;5.22;1.83;;;;;;;;;;4989091;28;20073;-64
2023/03/19 00:09:00;;;;;;;2.50;1.40;;;;;;;;;;4989513;28;20054;-65
2023/03/19 00:11:31;;;;;;;3.83;1.27;;;;;;;;;;4989011;28;20054;-64
2023/03/19 00:14:01;;;;;;;9.65;2.55;;;;;;;;;;5007083;28;20129;-64
2023/03/19 00:16:31;;;;;;;5.07;1.60;;;;;;;;;;5028765;28;20938;-66
2023/03/19 00:19:01;;;;;;;3.85;1.50;;;;;;;;;;4995281;28;20057;-67
2023/03/19 00:21:31;;;;;;;7.05;1.60;;;;;;;;;;4999691;28;20057;-64
2023/03/19 00:24:01;;;;;;;7.50;1.52;;;;;;;;;;5049957;28;20045;-64
2023/03/19 00:26:33;;;;;;;5.43;1.73;;;;;;;;;;5049306;28;20041;-64
2023/03/19 00:29:04;;;;;;;5.40;1.50;;;;;;;;;;5032334;28;20070;-65
2023/03/19 00:31:34;;;;;;;7.63;1.70;;;;;;;;;;5047905;28;20500;-67
2023/03/19 00:34:04;;;;;;;3.30;1.50;;;;;;;;;;5048454;28;20052;-68
2023/03/19 00:36:36;;;;;;;4.78;1.50;;;;;;;;;;5030918;28;20057;-64
2023/03/19 00:39:06;;;;;;;9.45;1.60;;;;;;;;;;5048190;28;20052;-64
2023/03/19 00:41:36;;;;;;;5.85;1.48;;;;;;;;;;4999017;28;20061;-64
2023/03/19 00:44:06;;;;;;;3.60;1.83;;;;;;;;;;4988532;28;20042;-63
2023/03/19 00:46:38;;;;;;;10.02;1.75;;;;;;;;;;4988784;28;20085;-68
2023/03/19 00:49:08;;;;;;;6.38;1.50;;;;;;;;;;4937528;28;20051;-64
2023/03/19 00:51:42;;;;;;;9.02;1.85;;;;;;;;;;4933891;29;20511;-64
2023/03/19 00:54:13;;;;;;;5.50;1.63;;;;;;;;;;4969300;28;20058;-64
2023/03/19 00:56:43;;;;;;;9.98;1.95;;;;;;;;;;4985008;28;20503;-64
2023/03/19 00:59:13;;;;;;;5.13;1.52;;;;;;;;;;4969735;28;20062;-62
2023/03/19 01:01:44;;;;;;;7.55;1.50;;;;;;;;;;4971027;28;20051;-62
2023/03/19 01:04:14;;;;;;;8.25;1.95;;;;;;;;;;4988829;28;20054;-64
2023/03/19 01:06:44;;;;;;;3.97;1.67;;;;;;;;;;4992361;28;20046;-65
2023/03/19 01:09:14;;;;;;;4.95;1.52;;;;;;;;;;4960567;28;20054;-59
2023/03/19 01:11:44;;;;;;;11.98;2.10;;;;;;;;;;4992386;28;20054;-59
2023/03/19 01:14:16;;;;;;;5.93;1.52;;;;;;;;;;4992441;28;20050;-59
2023/03/19 01:16:46;;;;;;;5.35;1.70;;;;;;;;;;4953159;29;20055;-64
2023/03/19 01:19:15;;;;;;;8.95;2.20;;;;;;;;;;4921616;29;20055;-64
2023/03/19 01:21:45;;;;;;;5.13;1.83;;;;;;;;;;4963094;28;20054;-64
2023/03/19 01:24:19;;;;;;;5.50;2.65;;;;;;;;;;4915134;29;20067;-61
2023/03/19 01:26:54;;;;;;;10.52;2.03;;;;;;;;;;4902346;29;20048;-64
2023/03/19 01:29:31;;;;;;;10.02;1.90;;;;;;;;;;4863104;29;20074;-65
2023/03/19 01:32:10;;;;;;;7.35;2.00;;;;;;;;;;4877294;29;20056;-64
2023/03/19 01:34:58;;;;;;;3.60;1.65;;;;;;;;;;4864691;29;20064;-64
2023/03/19 01:37:28;;;;;;;7.13;1.90;;;;;;;;;;4883304;29;20075;-66
2023/03/19 01:39:58;;;;;;;6.93;1.95;;;;;;;;;;4896023;29;20051;-64
2023/03/19 01:42:28;;;;;;;8.20;2.13;;;;;;;;;;4864606;29;20068;-60
2023/03/19 01:45:35;;;;;;;4.45;1.58;;;;;;;;;;4864432;29;20056;-63
2023/03/19 01:48:41;;;;;;;7.22;1.73;;;;;;;;;;4878007;29;20061;-64
2023/03/19 01:51:17;;;;;;;6.93;1.77;;;;;;;;;;4843396;29;20098;-65
2023/03/19 01:54:00;;;;;;;4.97;2.13;;;;;;;;;;4864259;29;20074;-61
2023/03/19 01:56:44;;;;;;;5.38;2.00;;;;;;;;;;4914217;29;20052;-69
2023/03/19 01:59:35;;;;;;;7.13;2.05;;;;;;;;;;4914468;29;20531;-64
2023/03/19 02:02:29;;;;;;;6.10;2.08;;;;;;;;;;4952270;28;20546;-64
2023/03/19 02:05:14;;;;;;;4.03;1.80;;;;;;;;;;4933475;29;20077;-64
2023/03/19 02:07:46;;;;;;;3.42;1.52;;;;;;;;;;4933122;29;20056;-65
2023/03/19 02:10:17;;;;;;;9.73;2.03;;;;;;;;;;4923398;29;20076;-64
2023/03/19 02:12:47;;;;;;;6.93;1.88;;;;;;;;;;4860986;29;20541;-65
2023/03/19 02:15:18;;;;;;;5.32;1.80;;;;;;;;;;4913426;29;20721;-70
2023/03/19 02:17:48;;;;;;;5.20;2.20;;;;;;;;;;4831349;29;20054;-61
2023/03/19 02:20:26;;;;;;;5.15;1.88;;;;;;;;;;4850032;29;20069;-64
2023/03/19 02:23:15;;;;;;;;;;;;;;;;;;4873203;29;20087;-63
2023/03/19 02:25:47;;;;;;;6.18;1.42;;;;;;;;;;4869087;29;19935;-59
2023/03/19 02:28:21;;;;;;;5.60;2.20;;;;;;;;;;4815279;29;20063;-59
2023/03/19 02:30:53;;;;;;;5.72;2.15;;;;;;;;;;4892473;29;20650;-62
2023/03/19 02:33:23;;;;;;;7.38;2.10;;;;;;;;;;4913647;29;20059;-64
2023/03/19 02:35:55;;;;;;;6.10;1.95;;;;;;;;;;4913392;29;20047;-64
2023/03/19 02:38:26;;;;;;;;;;;;;;;;;;4914031;29;20056;-63
2023/03/19 02:41:05;;;;;;;4.38;2.20;;;;;;;;;;4894643;29;19931;-64
2023/03/19 02:43:38;;;;;;;7.93;1.85;;;;;;;;;;4906055;29;20060;-61
2023/03/19 02:46:12;;;;;;;4.82;1.80;;;;;;;;;;4894491;29;20071;-64
2023/03/19 02:48:42;;;;;;;4.72;1.92;;;;;;;;;;4845242;29;20053;-65
2023/03/19 02:51:12;;;;;;;3.90;2.00;;;;;;;;;;4875765;29;20057;-64
2023/03/19 02:53:42;;;;;;;6.15;1.98;;;;;;;;;;4836966;29;20085;-61
2023/03/19 02:56:12;;;;;;;7.32;2.15;;;;;;;;;;4805375;29;20689;-64
2023/03/19 02:58:41;;;;;;;5.53;2.05;;;;;;;;;;4857112;29;20049;-64
2023/03/19 03:01:11;;;;;;;6.45;1.83;;;;;;;;;;4857546;29;20459;-64
2023/03/19 03:03:41;;;;;;;6.53;2.22;;;;;;;;;;4841453;29;20422;-66
2023/03/19 03:06:11;;;;;;;6.90;2.30;;;;;;;;;;4857585;29;20222;-64
2023/03/19 03:08:41;;;;;;;6.93;1.80;;;;;;;;;;4847099;29;20531;-64
2023/03/19 03:11:11;;;;;;;6.30;1.92;;;;;;;;;;4803877;29;20540;-61
2023/03/19 03:13:41;;;;;;;6.07;2.17;;;;;;;;;;4876681;29;20054;-64
2023/03/19 03:16:11;;;;;;;8.25;2.13;;;;;;;;;;4857516;29;20066;-62
2023/03/19 03:18:42;;;;;;;5.82;1.92;;;;;;;;;;4857242;29;20065;-64
2023/03/19 03:21:12;;;;;;;6.97;1.90;;;;;;;;;;4887541;29;20069;-65
2023/03/19 03:23:42;;;;;;;5.40;2.13;;;;;;;;;;4895532;29;20421;-65
2023/03/19 03:26:12;;;;;;;10.20;2.90;;;;;;;;;;4891538;29;20440;-62
2023/03/19 03:28:42;;;;;;;6.78;2.03;;;;;;;;;;4928520;29;20090;-64
2023/03/19 03:31:12;;;;;;;6.60;2.17;;;;;;;;;;4959156;28;20059;-61
2023/03/19 03:33:42;;;;;;;3.97;2.17;;;;;;;;;;4970396;28;20067;-64
2023/03/19 03:36:12;;;;;;;7.70;2.15;;;;;;;;;;4939182;28;20090;-64
2023/03/19 03:38:43;;;;;;;5.85;2.17;;;;;;;;;;5009357;28;20065;-64
2023/03/19 03:41:13;;;;;;;13.82;2.17;;;;;;;;;;5018296;28;20057;-65
2023/03/19 03:43:43;;;;;;;5.63;2.25;;;;;;;;;;5012356;28;20101;-61
2023/03/19 03:46:13;;;;;;;5.78;2.00;;;;;;;;;;5012553;28;20053;-64
2023/03/19 03:48:43;;;;;;;8.18;2.00;;;;;;;;;;5028485;28;20053;-64
2023/03/19 03:51:13;;;;;;;9.75;2.00;;;;;;;;;;5029148;28;20068;-64
2023/03/19 03:53:43;;;;;;;7.13;2.03;;;;;;;;;;5008875;28;20473;-60
2023/03/19 03:56:13;;;;;;;8.10;1.95;;;;;;;;;;4989585;28;20057;-64
2023/03/19 03:58:43;;;;;;;6.95;1.88;;;;;;;;;;4989223;28;20061;-60
2023/03/19 04:01:17;;;;;;;7.47;1.70;;;;;;;;;;4989517;28;20054;-64
2023/03/19 04:03:51;;;;;;;7.55;1.83;;;;;;;;;;4934700;28;20523;-68
2023/03/19 04:06:24;;;;;;;3.47;1.63;;;;;;;;;;4960466;28;20058;-64
2023/03/19 04:09:15;;;;;;;6.75;2.08;;;;;;;;;;4931287;29;20047;-66
2023/03/19 04:11:46;;;;;;;5.65;1.55;;;;;;;;;;4912441;29;20052;-61
2023/03/19 04:14:19;;;;;;;6.28;1.60;;;;;;;;;;4912521;29;20044;-59
2023/03/19 04:16:49;;;;;;;6.60;2.15;;;;;;;;;;4912290;29;20048;-64
2023/03/19 04:19:19;;;;;;;8.23;2.50;;;;;;;;;;4931137;29;20058;-62
2023/03/19 04:21:48;;;;;;;9.82;1.98;;;;;;;;;;4931235;29;20059;-64
2023/03/19 04:24:18;;;;;;;5.40;1.98;;;;;;;;;;4911927;29;20562;-65
2023/03/19 04:26:48;;;;;;;6.38;2.00;;;;;;;;;;4899374;29;20040;-64
2023/03/19 04:29:18;;;;;;;4.03;1.50;;;;;;;;;;4911779;29;20048;-63
2023/03/19 04:31:50;;;;;;;5.43;1.83;;;;;;;;;;4855788;29;20098;-61
2023/03/19 04:34:20;;;;;;;2.88;1.45;;;;;;;;;;4843108;29;20065;-61
2023/03/19 04:36:50;;;;;;;9.57;2.00;;;;;;;;;;4837751;29;20062;-61
2023/03/19 04:39:20;;;;;;;7.35;1.88;;;;;;;;;;4874807;29;20053;-63
2023/03/19 04:41:51;;;;;;;6.10;1.83;;;;;;;;;;4871239;29;20410;-61
2023/03/19 04:44:32;;;;;;;4.57;2.20;;;;;;;;;;4872905;29;20514;-59
2023/03/19 04:47:04;;;;;;;8.23;2.50;;;;;;;;;;4904208;29;20521;-64
2023/03/19 04:49:47;;;;;;;8.45;1.63;;;;;;;;;;4898069;29;20069;-62
2023/03/19 04:52:19;;;;;;;4.10;1.70;;;;;;;;;;4878027;29;20059;-65
2023/03/19 04:54:50;;;;;;;4.15;1.50;;;;;;;;;;4871259;29;20057;-61
2023/03/19 04:57:20;;;;;;;7.75;1.80;;;;;;;;;;4896412;29;20056;-64
2023/03/19 04:59:52;;;;;;;4.95;1.48;;;;;;;;;;4877845;29;20052;-64
2023/03/19 05:02:23;;;;;;;4.57;2.00;;;;;;;;;;4834506;29;20469;-64
2023/03/19 05:04:55;;;;;;;4.32;1.65;;;;;;;;;;4825680;29;20059;-64
2023/03/19 05:07:25;;;;;;;4.30;1.80;;;;;;;;;;4792456;29;20082;-64
2023/03/19 05:09:55;;;;;;;5.75;1.60;;;;;;;;;;4815535;29;20068;-65
2023/03/19 05:12:25;;;;;;;4.15;1.65;;;;;;;;;;4843428;29;20053;-64
2023/03/19 05:14:58;;;;;;;8.60;2.00;;;;;;;;;;4877737;29;20099;-64
2023/03/19 05:17:36;;;;;;;5.53;2.03;;;;;;;;;;4862519;29;20053;-61
2023/03/19 05:20:20;;;;;;;10.18;1.88;;;;;;;;;;4883972;29;20437;-61
2023/03/19 05:22:59;;;;;;;7.90;1.70;;;;;;;;;;4896164;29;20049;-64
2023/03/19 05:25:41;;;;;;;6.70;1.42;;;;;;;;;;4896154;29;20057;-64
2023/03/19 05:28:14;;;;;;;4.97;1.70;;;;;;;;;;4858627;29;20056;-63
2023/03/19 05:30:45;;;;;;;5.70;1.60;;;;;;;;;;4895826;29;20064;-64
2023/03/19 05:33:21;;;;;;;5.80;1.90;;;;;;;;;;4846326;29;20061;-67
2023/03/19 05:35:54;;;;;;;4.40;1.40;;;;;;;;;;4843495;29;20114;-70
2023/03/19 05:38:35;;;;;;;7.70;1.58;;;;;;;;;;4875709;29;20057;-64
2023/03/19 05:41:09;;;;;;;3.38;1.40;;;;;;;;;;4859369;29;20065;-72
2023/03/19 05:43:47;;;;;;;2.72;1.23;;;;;;;;;;4868232;29;20061;-65
2023/03/19 05:46:35;;;;;;;3.35;1.23;;;;;;;;;;4813940;29;20065;-63
2023/03/19 05:49:05;;;;;;;4.90;1.40;;;;;;;;;;4800187;29;20650;-62
2023/03/19 05:51:35;;;;;;;4.25;1.45;;;;;;;;;;4848323;29;20653;-60
2023/03/19 05:54:06;;;;;;;3.13;1.48;;;;;;;;;;4870586;29;20060;-64
2023/03/19 05:56:45;;;;;;;5.25;1.50;;;;;;;;;;4887536;29;20049;-63
2023/03/19 05:59:36;;;;;;;5.95;1.58;;;;;;;;;;4858270;29;20073;-68
2023/03/19 06:02:18;;;;;;;2.75;1.52;;;;;;;;;;4834607;29;20054;-70
2023/03/19 06:04:51;;;;;;;;;;;;;;;;;;4820587;29;20058;-63
2023/03/19 06:07:26;;;;;;;3.47;1.60;;;;;;;;;;4823335;29;20409;-64
2023/03/19 06:09:57;;;;;;;6.05;1.50;;;;;;;;;;4808071;29;20061;-64
2023/03/19 06:12:27;;;;;;;10.55;2.08;;;;;;;;;;4803206;29;20059;-64
2023/03/19 06:15:20;;;;;;;4.68;1.88;;;;;;;;;;4821457;29;21029;-63
2023/03/19 06:18:11;;;;;;;3.25;1.63;;;;;;;;;;4831572;29;20076;-65
2023/03/19 06:20:41;;;;;;;5.07;1.75;;;;;;;;;;4821199;29;20609;-64
2023/03/19 06:23:13;;;;;;;4.65;1.65;;;;;;;;;;4806105;29;20559;-64
2023/03/19 06:25:44;;;;;;;4.90;1.50;;;;;;;;;;4835794;29;20058;-63
2023/03/19 06:28:15;;;;;;;4.38;1.13;;;;;;;;;;4839268;29;20207;-64
2023/03/19 06:30:45;;;;;;;6.20;1.38;;;;;;;;;;4815202;29;20055;-64
2023/03/19 06:33:41;;;;;;;8.57;1.42;;;;;;;;;;4749100;30;20073;-64
2023/03/19 06:36:11;;;;;;;2.05;1.17;;;;;;;;;;4777696;30;20573;-63
2023/03/19 06:38:41;;;;;;;6.10;1.60;;;;;;;;;;4766698;30;20063;-64
2023/03/19 06:41:11;;;;;;;4.68;1.27;;;;;;;;;;4767296;30;20064;-64
2023/03/19 06:43:41;;;;;;;2.95;1.50;;;;;;;;;;4765545;29;20064;-62
2023/03/19 06:46:11;;;;;;;3.97;1.45;;;;;;;;;;4681958;30;20077;-64
2023/03/19 06:48:41;;;;;;;5.07;1.83;;;;;;;;;;4699079;30;20996;-63
2023/03/19 06:51:11;;;;;;;5.80;1.60;;;;;;;;;;4714549;30;20072;-63
2023/03/19 06:53:41;;;;;;;6.35;1.85;;;;;;;;;;4781751;30;20067;-64
2023/03/19 06:56:11;;;;;;;5.50;1.48;;;;;;;;;;4788311;29;20543;-63
2023/03/19 06:58:41;;;;;;;2.90;1.55;;;;;;;;;;4851263;29;20058;-64
2023/03/19 07:01:11;;;;;;;6.35;1.50;;;;;;;;;;4892437;29;20489;-63
2023/03/19 07:03:41;;;;;;;5.72;1.50;;;;;;;;;;4913226;29;20164;-63
2023/03/19 07:06:11;;;;;;;3.47;1.40;;;;;;;;;;4913889;29;20394;-64
2023/03/19 07:08:45;;;;;;;5.65;1.48;;;;;;;;;;4902345;29;20057;-63
2023/03/19 07:11:15;;;;;;;3.45;1.33;;;;;;;;;;4951688;29;20039;-63
2023/03/19 07:13:45;;;;;;;4.55;1.42;;;;;;;;;;4946173;28;20076;-64
2023/03/19 07:16:15;;;;;;;3.45;1.25;;;;;;;;;;5009982;28;20085;-66
2023/03/19 07:18:46;;;;;;;4.95;1.80;;;;;;;;;;5009764;28;20054;-64
2023/03/19 07:21:15;;;;;;;4.53;1.83;;;;;;;;;;5037305;28;20051;-63
2023/03/19 07:23:45;;;;;;;2.30;1.20;;;;;;;;;;5052995;28;20504;-70
2023/03/19 07:26:15;;;;;;;2.03;1.40;;;;;;;;;;5069454;28;20060;-63
2023/03/19 07:28:45;;;;;;;3.90;1.25;;;;;;;;;;5069202;28;20044;-63
2023/03/19 07:31:17;;;;;;;6.43;1.67;;;;;;;;;;5069158;28;20059;-63
2023/03/19 07:33:47;;;;;;;4.70;1.60;;;;;;;;;;5069293;28;20051;-64
2023/03/19 07:36:16;;;;;;;4.53;1.38;;;;;;;;;;5019408;28;20052;-64
2023/03/19 07:38:46;;;;;;;2.80;1.40;;;;;;;;;;5029088;28;20054;-64
2023/03/19 07:41:16;;;;;;;4.47;1.30;;;;;;;;;;5012832;28;20083;-63
2023/03/19 07:43:46;;;;;;;2.55;1.20;;;;;;;;;;5029183;28;20065;-64
2023/03/19 07:46:17;;;;;;;2.97;1.40;;;;;;;;;;4979882;28;20060;-64
2023/03/19 07:48:47;;;;;;;4.47;1.80;;;;;;;;;;4996184;28;20057;-63
2023/03/19 07:51:16;;;;;;;4.15;1.38;;;;;;;;;;4996641;28;20064;-64
2023/03/19 07:53:46;;;;;;;2.33;1.10;;;;;;;;;;5029170;28;20459;-64
2023/03/19 07:56:17;;;;;;;2.53;1.40;;;;;;;;;;4992363;28;20057;-63
2023/03/19 07:58:47;;;;;;;3.65;1.35;;;;;;;;;;4993049;28;20060;-63
2023/03/19 08:01:17;;;;;;;3.30;1.00;;;;;;;;;;5008911;28;20536;-64
2023/03/19 08:03:50;;;;;;;2.78;1.50;;;;;;;;;;4976449;28;21291;-63
2023/03/19 08:06:20;;;;;;;5.68;1.20;;;;;;;;;;5009043;28;20053;-63
2023/03/19 08:08:50;;;;;;;3.78;1.38;;;;;;;;;;5009017;28;20046;-64
2023/03/19 08:11:20;;;;;;;5.30;1.33;;;;;;;;;;5008849;28;20580;-65
2023/03/19 08:13:50;;;;;;;6.07;1.30;;;;;;;;;;5008662;28;20053;-65
2023/03/19 08:16:20;;;;;;;3.97;1.10;;;;;;;;;;4992141;28;20441;-64
2023/03/19 08:18:50;;;;;;;4.93;1.30;;;;;;;;;;5009256;28;20154;-64
2023/03/19 08:21:21;;;;;;;3.97;1.40;;;;;;;;;;5008709;28;20058;-63
2023/03/19 08:23:52;;;;;;;3.17;1.20;;;;;;;;;;4945148;28;20056;-63
2023/03/19 08:26:22;;;;;;;4.93;1.55;;;;;;;;;;5011322;28;20048;-63
2023/03/19 08:28:52;;;;;;;3.33;1.30;;;;;;;;;;5051143;28;20037;-63
2023/03/19 08:31:21;;;;;;;6.55;1.38;;;;;;;;;;5050556;28;20052;-63
2023/03/19 08:33:51;;;;;;;3.22;1.45;;;;;;;;;;5051041;28;20053;-64
2023/03/19 08:36:21;;;;;;;3.05;1.20;;;;;;;;;;5050598;28;20405;-64
2023/03/19 08:38:53;;;;;;;3.33;1.17;;;;;;;;;;5032024;28;20040;-63
2023/03/19 08:41:26;;;;;;;2.15;1.20;;;;;;;;;;5048066;28;20064;-64
2023/03/19 08:43:56;;;;;;;10.10;1.20;;;;;;;;;;5048718;28;20068;-63
2023/03/19 08:46:26;;;;;;;3.55;1.20;;;;;;;;;;4998908;28;20068;-64
2023/03/19 08:48:56;;;;;;;2.22;1.00;;;;;;;;;;5048184;28;20056;-64
2023/03/19 08:51:29;;;;;;;3.80;1.30;;;;;;;;;;5048095;28;20056;-65
2023/03/19 08:53:59;;;;;;;;;;;;;;;;;;5048693;28;20064;-63
2023/03/19 08:56:29;;;;;;;5.25;1.52;;;;;;;;;;5047539;28;19964;-64
2023/03/19 08:58:59;;;;;;;5.63;1.20;;;;;;;;;;5047966;28;20049;-64
2023/03/19 09:01:28;;;;;;;4.28;1.27;;;;;;;;;;5048069;28;20064;-64
2023/03/19 09:03:58;;;;;;;4.13;1.30;;;;;;;;;;5047866;28;20409;-64
2023/03/19 09:06:28;;;;;;;9.07;1.48;;;;;;;;;;5048230;28;20061;-63
2023/03/19 09:08:58;;;;;;;3.97;1.20;;;;;;;;;;5048064;28;20049;-63
2023/03/19 09:11:28;;;;;;;5.38;1.30;;;;;;;;;;5046410;28;20423;-63
2023/03/19 09:13:58;;;;;;;4.60;1.45;;;;;;;;;;5027950;28;20060;-63
2023/03/19 09:16:28;;;;;;;7.18;1.52;;;;;;;;;;5005320;28;20061;-64
2023/03/19 09:19:01;;;;;;;3.97;1.40;;;;;;;;;;5048436;28;20475;-63
2023/03/19 09:21:31;;;;;;;6.07;1.27;;;;;;;;;;5047993;28;20056;-64
2023/03/19 09:24:01;;;;;;;3.78;1.20;;;;;;;;;;5030870;28;20056;-64
2023/03/19 09:26:30;;;;;;;3.00;1.80;;;;;;;;;;5033821;28;20528;-63
2023/03/19 09:29:00;;;;;;;3.50;1.45;;;;;;;;;;5034887;28;20060;-64
2023/03/19 09:31:30;;;;;;;2.40;1.02;;;;;;;;;;5034642;28;20049;-63
2023/03/19 09:34:00;;;;;;;7.80;1.30;;;;;;;;;;5051279;28;20049;-63
2023/03/19 09:36:30;;;;;;;4.20;1.40;;;;;;;;;;5052530;28;20060;-68
2023/03/19 09:39:00;;;;;;;5.57;1.30;;;;;;;;;;5014473;28;20057;-63
2023/03/19 09:41:41;;;;;;;3.53;1.48;;;;;;;;;;5031733;28;20057;-63
2023/03/19 09:44:13;;;;;;;4.18;1.30;;;;;;;;;;4998561;28;20049;-63
2023/03/19 09:46:46;;;;;;;7.40;1.55;;;;;;;;;;5031541;28;20065;-64
2023/03/19 09:49:24;;;;;;;3.97;1.20;;;;;;;;;;5031172;28;20531;-58
2023/03/19 09:52:02;;;;;;;4.47;1.40;;;;;;;;;;5015111;28;20061;-63
2023/03/19 09:54:39;;;;;;;5.72;1.40;;;;;;;;;;4998581;28;20057;-63
2023/03/19 09:57:10;;;;;;;5.97;1.20;;;;;;;;;;5030655;28;20053;-63
2023/03/19 09:59:42;;;;;;;3.17;1.25;;;;;;;;;;4967672;28;20045;-63
2023/03/19 10:02:21;;;;;;;4.60;1.65;;;;;;;;;;5030705;28;20049;-64
2023/03/19 10:05:06;;;;;;;3.63;1.50;;;;;;;;;;4991157;28;20053;-67
2023/03/19 10:07:43;;;;;;;5.32;1.60;;;;;;;;;;4991684;28;20196;-64
2023/03/19 10:10:28;;;;;;;3.55;1.40;;;;;;;;;;4991518;28;20058;-62
2023/03/19 10:13:12;;;;;;;;;;;;;;;;;;4992016;28;20053;-63
2023/03/19 10:15:44;;;;;;;3.28;1.50;;;;;;;;;;4961072;28;19922;-63
2023/03/19 10:18:17;;;;;;;;;;;;;;;;;;5011636;28;20050;-63
2023/03/19 10:21:07;;;;;;;6.50;1.48;;;;;;;;;;4994949;28;19922;-64
2023/03/19 10:23:52;;;;;;;4.70;1.42;;;;;;;;;;4971738;28;20408;-64
2023/03/19 10:26:28;;;;;;;5.45;1.85;;;;;;;;;;4939434;28;20098;-64
2023/03/19 10:29:21;;;;;;;7.63;1.80;;;;;;;;;;4971622;28;20058;-64
2023/03/19 10:32:20;;;;;;;4.13;2.33;;;;;;;;;;4971730;28;20047;-63
2023/03/19 10:34:54;;;;;;;2.63;1.50;;;;;;;;;;4955143;28;20051;-68
2023/03/19 10:37:28;;;;;;;5.45;1.88;;;;;;;;;;4970290;28;20448;-64
2023/03/19 10:40:00;;;;;;;3.88;2.00;;;;;;;;;;4908063;28;20490;-65
2023/03/19 10:42:44;;;;;;;3.95;1.92;;;;;;;;;;4952173;28;20790;-64
2023/03/19 10:45:20;;;;;;;4.30;1.88;;;;;;;;;;5030479;28;20053;-61
2023/03/19 10:47:51;;;;;;;5.80;1.80;;;;;;;;;;5029993;28;20061;-65
2023/03/19 10:50:35;;;;;;;5.95;2.15;;;;;;;;;;5030264;28;20054;-64
2023/03/19 10:53:13;;;;;;;4.70;1.60;;;;;;;;;;5013364;28;20045;-62
2023/03/19 10:55:54;;;;;;;6.07;1.50;;;;;;;;;;5030275;28;20084;-65
2023/03/19 10:58:26;;;;;;;5.13;1.60;;;;;;;;;;5030248;28;20057;-65
2023/03/19 11:01:10;;;;;;;4.70;2.08;;;;;;;;;;5024664;28;20053;-59
2023/03/19 11:03:51;;;;;;;3.72;1.92;;;;;;;;;;5052187;28;20048;-65
2023/03/19 11:06:36;;;;;;;4.05;1.75;;;;;;;;;;5052165;28;20052;-65
2023/03/19 11:09:09;;;;;;;4.35;2.00;;;;;;;;;;5066716;28;20068;-62
2023/03/19 11:11:52;;;;;;;7.53;2.00;;;;;;;;;;5051751;28;20049;-65
2023/03/19 11:14:35;;;;;;;11.38;2.22;;;;;;;;;;5033104;28;20531;-66
2023/03/19 11:17:17;;;;;;;3.85;1.95;;;;;;;;;;5052143;28;20048;-67
2023/03/19 11:19:53;;;;;;;5.68;1.83;;;;;;;;;;5051962;28;20405;-61
2023/03/19 11:22:30;;;;;;;6.68;2.28;;;;;;;;;;5033069;28;20052;-70
2023/03/19 11:25:13;;;;;;;4.38;2.15;;;;;;;;;;5051930;28;20037;-64
2023/03/19 11:27:43;;;;;;;6.20;2.22;;;;;;;;;;5016597;28;20057;-68
2023/03/19 11:30:18;;;;;;;4.93;1.40;;;;;;;;;;5032813;28;20502;-65
2023/03/19 11:33:05;;;;;;;3.72;1.92;;;;;;;;;;5051723;28;20409;-62
2023/03/19 11:35:41;;;;;;;5.57;2.03;;;;;;;;;;5032775;28;20159;-64
2023/03/19 11:38:57;;;;;;;6.72;2.25;;;;;;;;;;5033079;28;20603;-67
2023/03/19 11:41:43;;;;;;;3.40;2.03;;;;;;;;;;5032706;28;20052;-65
2023/03/19 11:44:15;;;;;;;;;;;;;;;;;;5052221;28;20049;-73
2023/03/19 11:46:59;;;;;;;6.75;2.50;;;;;;;;;;5065059;28;19924;-64
2023/03/19 11:49:29;;;;;;;5.20;1.50;;;;;;;;;;5065713;28;20045;-65
2023/03/19 11:52:13;;;;;;;2.90;1.80;;;;;;;;;;5048932;28;20056;-67
2023/03/19 11:58:57;;;;;;;5.18;2.40;;;;;;;;;;5104193;27;20445;-65
2023/03/19 12:01:48;;;;;;;8.10;2.83;;;;;;;;;;5073577;28;20047;-64
2023/03/19 12:04:42;;;;;;;6.60;2.00;;;;;;;;;;5074096;28;20123;-65
2023/03/19 12:07:30;;;;;;;4.70;1.63;;;;;;;;;;5107562;28;20059;-66
2023/03/19 12:10:06;;;;;;;4.05;1.75;;;;;;;;;;5107614;28;20514;-64
2023/03/19 12:12:45;;;;;;;2.58;1.42;;;;;;;;;;5066732;28;20060;-64
2023/03/19 12:15:26;;;;;;;5.38;2.00;;;;;;;;;;5066636;28;20064;-64
2023/03/19 12:18:04;;;;;;;9.00;4.15;;;;;;;;;;5017247;28;20049;-65
2023/03/19 12:21:06;;;;;;;3.05;1.75;;;;;;;;;;5066581;28;20535;-64
2023/03/19 12:23:46;;;;;;;4.95;1.65;;;;;;;;;;5026739;28;20065;-65
2023/03/19 12:26:41;;;;;;;7.13;1.60;;;;;;;;;;5010234;28;20064;-65
2023/03/19 12:29:29;;;;;;;6.53;1.48;;;;;;;;;;5006607;28;20382;-68
2023/03/19 12:32:16;;;;;;;4.35;1.35;;;;;;;;;;5006451;28;20062;-65
2023/03/19 12:35:03;;;;;;;5.38;1.90;;;;;;;;;;5006741;28;20054;-65
2023/03/19 12:38:02;;;;;;;3.42;1.48;;;;;;;;;;4951290;28;20051;-64
2023/03/19 12:40:51;;;;;;;4.18;1.70;;;;;;;;;;4967506;28;20059;-64
2023/03/19 12:43:37;;;;;;;3.30;1.42;;;;;;;;;;4935629;28;20054;-65
2023/03/19 12:46:10;;;;;;;4.68;1.67;;;;;;;;;;4967586;28;20059;-64
2023/03/19 12:48:50;;;;;;;4.30;1.95;;;;;;;;;;4967500;28;20067;-67
2023/03/19 12:51:26;;;;;;;3.20;1.75;;;;;;;;;;4967500;28;20406;-65
2023/03/19 12:54:03;;;;;;;5.53;1.55;;;;;;;;;;4951186;28;20519;-65
2023/03/19 12:56:44;;;;;;;8.02;1.90;;;;;;;;;;4967173;28;20062;-64
2023/03/19 12:59:22;;;;;;;5.47;2.17;;;;;;;;;;4969563;28;20055;-64
2023/03/19 13:02:37;;;;;;;6.25;2.20;;;;;;;;;;4967018;28;20051;-65
2023/03/19 13:05:16;;;;;;;4.20;2.33;;;;;;;;;;4859710;29;20141;-65
2023/03/19 13:08:07;;;;;;;5.38;2.25;;;;;;;;;;4890541;29;20536;-65
2023/03/19 13:10:36;;;;;;;;;;;;;;;;;;4878978;29;20064;-64
2023/03/19 13:13:33;;;;;;;5.55;2.28;;;;;;;;;;4878728;29;19930;-67
2023/03/19 13:16:26;;;;;;;4.03;2.17;;;;;;;;;;4894472;29;20079;-64
2023/03/19 13:19:17;;;;;;;3.75;1.50;;;;;;;;;;4953953;29;20052;-63
2023/03/19 13:21:52;;;;;;;8.40;1.95;;;;;;;;;;4954177;29;20507;-65
2023/03/19 13:24:24;;;;;;;5.07;1.70;;;;;;;;;;4954322;29;20059;-64
2023/03/19 13:26:57;;;;;;;4.68;1.85;;;;;;;;;;4954113;29;20055;-65
2023/03/19 13:29:30;;;;;;;4.82;1.48;;;;;;;;;;4953945;29;20455;-65
2023/03/19 13:32:21;;;;;;;4.18;1.70;;;;;;;;;;4955600;28;20054;-64
2023/03/19 13:35:18;;;;;;;4.70;2.47;;;;;;;;;;4973164;28;20059;-64
2023/03/19 13:38:15;;;;;;;5.68;1.60;;;;;;;;;;4972884;28;20715;-64
2023/03/19 13:40:51;;;;;;;4.13;1.90;;;;;;;;;;4922592;28;20060;-63
2023/03/19 13:43:30;;;;;;;4.63;2.08;;;;;;;;;;4902927;29;20055;-65
2023/03/19 13:46:12;;;;;;;5.25;1.30;;;;;;;;;;4934253;29;20056;-69
2023/03/19 13:48:44;;;;;;;9.02;2.25;;;;;;;;;;4934564;29;20056;-64
2023/03/19 13:51:20;;;;;;;6.00;2.63;;;;;;;;;;4934442;29;20058;-64
2023/03/19 13:54:11;;;;;;;4.30;2.00;;;;;;;;;;4934258;29;20055;-64
2023/03/19 13:57:05;;;;;;;6.35;2.05;;;;;;;;;;4947530;28;20063;-65
2023/03/19 13:59:36;;;;;;;4.90;1.20;;;;;;;;;;4953292;28;20055;-64
2023/03/19 14:02:21;;;;;;;5.53;1.38;;;;;;;;;;4953438;28;20058;-64
2023/03/19 14:05:15;;;;;;;2.83;1.65;;;;;;;;;;4953229;28;20070;-64
2023/03/19 14:07:52;;;;;;;2.80;1.50;;;;;;;;;;4953595;28;20060;-63
2023/03/19 14:10:24;;;;;;;3.30;1.33;;;;;;;;;;4953234;28;20051;-64
2023/03/19 14:13:08;;;;;;;2.03;1.38;;;;;;;;;;4953133;28;20075;-64
2023/03/19 14:15:47;;;;;;;4.55;1.90;;;;;;;;;;4953093;28;20051;-63
2023/03/19 14:18:22;;;;;;;5.32;1.80;;;;;;;;;;4997944;28;20053;-64
2023/03/19 14:20:57;;;;;;;4.13;1.80;;;;;;;;;;5058940;28;20523;-64
2023/03/19 14:23:31;;;;;;;6.32;1.70;;;;;;;;;;5071032;28;20060;-65
2023/03/19 14:26:24;;;;;;;2.60;1.50;;;;;;;;;;5070862;28;20060;-64
2023/03/19 14:29:05;;;;;;;2.53;1.30;;;;;;;;;;5050695;28;20524;-65
2023/03/19 14:31:38;;;;;;;3.78;1.65;;;;;;;;;;5072836;28;20467;-64
2023/03/19 14:34:26;;;;;;;3.60;1.35;;;;;;;;;;5020724;28;20060;-65
2023/03/19 14:37:24;;;;;;;3.15;1.52;;;;;;;;;;5070832;28;20052;-65
2023/03/19 14:40:18;;;;;;;3.60;1.30;;;;;;;;;;5070561;28;20064;-65
2023/03/19 14:43:05;;;;;;;1.90;1.15;;;;;;;;;;5030382;28;20064;-64
2023/03/19 14:45:58;;;;;;;2.85;1.70;;;;;;;;;;4974859;28;20050;-65
2023/03/19 14:49:05;;;;;;;2.90;1.50;;;;;;;;;;4975102;28;20605;-64
2023/03/19 14:51:56;;;;;;;2.30;1.02;;;;;;;;;;4990987;28;20051;-65
2023/03/19 14:54:47;;;;;;;2.70;1.08;;;;;;;;;;4974779;28;20062;-65
2023/03/19 14:57:21;;;;;;;3.97;1.30;;;;;;;;;;4990940;28;20065;-65
2023/03/19 14:59:52;;;;;;;3.92;1.58;;;;;;;;;;4990800;28;20058;-65
2023/03/19 15:02:36;;;;;;;3.00;1.40;;;;;;;;;;4991127;28;20062;-65
2023/03/19 15:05:31;;;;;;;3.42;1.60;;;;;;;;;;4974949;28;20054;-64
2023/03/19 15:08:11;;;;;;;2.78;1.42;;;;;;;;;;5010478;28;20057;-64
2023/03/19 15:11:08;;;;;;;2.13;1.00;;;;;;;;;;4994142;28;20405;-64
2023/03/19 15:14:06;;;;;;;2.72;1.10;;;;;;;;;;4971155;28;20062;-63
2023/03/19 15:16:50;;;;;;;3.83;1.20;;;;;;;;;;4979817;28;20061;-64
2023/03/19 15:19:30;;;;;;;2.08;1.02;;;;;;;;;;4993036;28;20148;-64
2023/03/19 15:22:13;;;;;;;2.15;1.25;;;;;;;;;;5049648;28;20052;-64
2023/03/19 15:24:44;;;;;;;2.97;1.40;;;;;;;;;;5049732;28;20508;-63
2023/03/19 15:27:20;;;;;;;3.60;1.52;;;;;;;;;;5049797;28;20590;-64
2023/03/19 15:29:51;;;;;;;2.42;0.90;;;;;;;;;;5029779;28;20056;-64
2023/03/19 15:32:38;;;;;;;5.72;1.00;;;;;;;;;;5029780;28;20061;-64
2023/03/19 15:35:34;;;;;;;4.05;0.98;;;;;;;;;;5030060;28;20544;-64
2023/03/19 15:38:11;;;;;;;3.40;1.08;;;;;;;;;;5029803;28;20054;-64
2023/03/19 15:40:42;;;;;;;1.88;1.10;;;;;;;;;;4980942;28;20049;-65
2023/03/19 15:43:13;;;;;;;1.98;1.17;;;;;;;;;;5029747;28;20064;-65